Time;durP1;ratioP1;P1;durP2;ratioP2;P2;SDS_P1;SDS_P2;PMS_P1;PMS_P2;Temp;Humidity;BMP_temperature;BMP_pressure;BME280_temperature;BME280_humidity;BME280_pressure;Samples;Min_cycle;Max_cycle;Signal;HPM_P1;HPM_P2
2021/05/15 00:00:09;;;;;;;0.63;0.63;;;;;;;10.43;71.27;94837.03;5016227;28;20062;-79
2021/05/15 00:02:35;;;;;;;1.42;0.80;;;;;;;10.72;70.41;94842.56;5017343;28;20021;-77
2021/05/15 00:05:01;;;;;;;1.10;0.73;;;;;;;10.82;70.34;94838.81;5011832;28;20038;-77
2021/05/15 00:07:26;;;;;;;4.97;0.80;;;;;;;10.46;71.35;94831.13;5011725;28;20038;-75
2021/05/15 00:09:52;;;;;;;1.98;0.93;;;;;;;10.43;71.78;94839.69;5012694;28;20038;-78
2021/05/15 00:12:17;;;;;;;2.42;0.80;;;;;;;10.53;71.53;94837.53;5012332;28;20034;-77
2021/05/15 00:14:43;;;;;;;1.90;0.90;;;;;;;10.55;72.09;94843.34;5014575;28;20022;-77
2021/05/15 00:17:08;;;;;;;2.88;0.90;;;;;;;10.59;70.89;94830.97;5012724;28;20042;-77
2021/05/15 00:19:34;;;;;;;2.00;1.10;;;;;;;10.58;72.02;94834.72;5012797;28;20113;-77
2021/05/15 00:22:00;;;;;;;1.98;0.90;;;;;;;10.45;72.52;94840.97;5012627;28;20026;-78
2021/05/15 00:24:25;;;;;;;1.90;1.00;;;;;;;10.99;70.40;94827.41;5012101;28;20030;-75
2021/05/15 00:26:51;;;;;;;1.63;1.23;;;;;;;11.01;69.77;94822.56;5014323;28;20091;-77
2021/05/15 00:29:16;;;;;;;2.25;0.88;;;;;;;11.03;70.00;94834.44;5012788;28;20037;-75
2021/05/15 00:31:42;;;;;;;5.70;0.90;;;;;;;11.00;70.40;94839.59;5012543;28;20050;-77
2021/05/15 00:34:07;;;;;;;1.77;1.00;;;;;;;11.37;68.57;94828.31;5011931;28;20042;-77
2021/05/15 00:36:32;;;;;;;1.50;0.80;;;;;;;11.16;68.77;94838.06;5012153;28;20030;-76
2021/05/15 00:38:58;;;;;;;1.35;0.80;;;;;;;10.90;69.54;94828.19;5012191;28;20103;-76
2021/05/15 00:41:23;;;;;;;2.30;0.95;;;;;;;11.23;69.41;94835.69;5014078;28;20034;-77
2021/05/15 00:44:10;;;;;;;1.02;0.77;;;;;;;11.30;69.12;94833.31;5011789;28;20056;-77
2021/05/15 00:46:37;;;;;;;1.52;0.95;;;;;;;11.23;68.69;94821.59;5010979;28;20034;-77
2021/05/15 00:49:04;;;;;;;0.82;0.75;;;;;;;11.49;67.66;94817.00;5010677;28;20070;-78
2021/05/15 00:51:36;;;;;;;1.27;0.90;;;;;;;11.06;69.09;94833.03;5012192;28;20192;-76
2021/05/15 00:54:03;;;;;;;1.10;0.93;;;;;;;11.39;67.82;94826.09;5010576;28;20060;-78
2021/05/15 00:56:29;;;;;;;1.58;0.68;;;;;;;11.18;68.29;94825.19;5013074;28;20061;-78
2021/05/15 00:58:55;;;;;;;1.48;0.80;;;;;;;11.65;66.98;94823.38;5011848;28;20045;-76
2021/05/15 01:01:21;;;;;;;1.77;0.95;;;;;;;11.48;67.83;94828.75;5010719;28;20499;-77
2021/05/15 01:03:46;;;;;;;1.33;0.90;;;;;;;11.68;67.69;94820.09;5011550;28;20034;-77
2021/05/15 01:06:12;;;;;;;1.80;0.70;;;;;;;11.86;67.01;94815.50;5011739;28;20109;-76
2021/05/15 01:08:42;;;;;;;1.70;0.77;;;;;;;11.94;67.56;94819.25;5013637;28;20531;-77
2021/05/15 01:11:08;;;;;;;1.15;0.80;;;;;;;11.97;67.70;94821.25;5011646;28;20446;-77
2021/05/15 01:13:35;;;;;;;1.40;0.70;;;;;;;12.13;67.52;94818.84;5011489;28;20042;-77
2021/05/15 01:16:00;;;;;;;0.90;0.90;;;;;;;12.17;67.70;94820.53;5010833;28;20042;-77
2021/05/15 01:18:26;;;;;;;1.52;0.70;;;;;;;12.18;67.98;94821.31;5011735;28;20053;-76
2021/05/15 01:20:57;;;;;;;1.65;0.90;;;;;;;12.31;67.56;94831.00;5012501;28;20033;-78
2021/05/15 01:23:22;;;;;;;1.00;0.70;;;;;;;12.41;67.46;94829.84;5011483;28;20125;-76
2021/05/15 01:25:48;;;;;;;1.90;0.75;;;;;;;12.13;67.66;94822.31;5011315;28;20168;-78
2021/05/15 01:28:13;;;;;;;2.65;0.80;;;;;;;11.34;71.91;94831.59;5011778;28;20648;-77
2021/05/15 01:30:39;;;;;;;0.93;0.90;;;;;;;11.51;71.00;94830.00;5011217;28;20092;-77
2021/05/15 01:33:05;;;;;;;1.13;0.70;;;;;;;11.49;72.20;94824.22;5011092;28;20026;-77
2021/05/15 01:35:30;;;;;;;3.67;0.90;;;;;;;11.71;71.71;94827.44;5013276;28;20018;-78
2021/05/15 01:37:56;;;;;;;1.13;0.95;;;;;;;11.78;72.54;94832.28;5011198;28;20136;-79
2021/05/15 01:40:22;;;;;;;1.13;0.73;;;;;;;11.57;72.75;94821.53;5010947;28;20070;-77
2021/05/15 01:42:47;;;;;;;1.67;1.00;;;;;;;11.49;73.21;94824.22;5010779;28;20124;-78
2021/05/15 01:45:13;;;;;;;1.13;0.77;;;;;;;11.56;74.27;94829.81;5010660;28;20092;-76
2021/05/15 01:47:38;;;;;;;1.17;0.70;;;;;;;11.42;74.26;94825.50;5012715;28;20075;-77
2021/05/15 01:50:05;;;;;;;1.23;1.00;;;;;;;11.31;75.38;94832.25;5010415;28;20049;-78
2021/05/15 01:52:31;;;;;;;1.45;1.10;;;;;;;11.32;76.38;94831.13;5009720;28;20030;-77
2021/05/15 01:54:57;;;;;;;3.88;0.80;;;;;;;11.25;76.27;94817.50;5009998;28;20037;-77
2021/05/15 01:57:22;;;;;;;1.35;0.80;;;;;;;11.38;76.44;94821.88;5010508;28;20402;-76
2021/05/15 01:59:47;;;;;;;0.70;0.70;;;;;;;11.50;76.02;94828.44;5012469;28;20026;-77
2021/05/15 02:02:13;;;;;;;1.98;1.08;;;;;;;11.57;75.71;94820.75;5009048;28;20564;-75
2021/05/15 02:04:38;;;;;;;1.70;1.30;;;;;;;11.61;76.20;94811.00;5010275;28;20053;-75
2021/05/15 02:07:03;;;;;;;1.48;0.98;;;;;;;11.70;75.44;94814.44;5010376;28;20048;-76
2021/05/15 02:09:29;;;;;;;2.70;1.15;;;;;;;11.72;75.66;94817.59;5010074;28;20038;-77
2021/05/15 02:11:54;;;;;;;2.38;1.20;;;;;;;11.82;75.29;94821.78;5012295;28;20109;-77
2021/05/15 02:14:20;;;;;;;1.60;0.98;;;;;;;11.83;75.95;94818.06;5009709;28;20426;-76
2021/05/15 02:16:45;;;;;;;1.70;1.17;;;;;;;11.87;75.54;94814.41;5009806;28;20041;-76
2021/05/15 02:19:10;;;;;;;1.63;1.00;;;;;;;11.92;75.07;94822.22;5010124;28;20041;-76
2021/05/15 02:21:36;;;;;;;1.23;0.80;;;;;;;11.93;75.47;94823.81;5009798;28;20042;-76
2021/05/15 02:24:02;;;;;;;1.75;1.13;;;;;;;11.95;75.38;94821.59;5009055;28;20121;-76
2021/05/15 02:26:28;;;;;;;1.35;0.98;;;;;;;11.97;75.48;94822.03;5011416;28;20069;-74
2021/05/15 02:28:53;;;;;;;2.15;1.30;;;;;;;12.03;75.39;94822.66;5010166;28;20101;-75
2021/05/15 02:31:19;;;;;;;1.90;1.02;;;;;;;11.98;75.60;94812.19;5009857;28;20037;-75
2021/05/15 02:33:44;;;;;;;1.95;1.17;;;;;;;12.04;74.98;94807.47;5008590;28;20038;-76
2021/05/15 02:36:09;;;;;;;3.25;0.90;;;;;;;12.02;75.48;94810.41;5009207;28;20026;-76
2021/05/15 02:38:35;;;;;;;1.65;1.00;;;;;;;12.02;75.27;94814.97;5012108;28;20026;-76
2021/05/15 02:41:00;;;;;;;1.23;1.10;;;;;;;12.05;74.90;94823.13;5010145;28;20042;-75
2021/05/15 02:43:26;;;;;;;2.40;1.25;;;;;;;12.02;75.20;94821.09;5009253;28;20033;-76
2021/05/15 02:45:52;;;;;;;1.95;0.90;;;;;;;11.89;75.25;94809.56;5009876;28;20065;-77
2021/05/15 02:48:17;;;;;;;1.15;0.80;;;;;;;11.90;75.00;94813.78;5010009;28;20045;-76
2021/05/15 02:50:48;;;;;;;0.85;0.85;;;;;;;11.84;74.64;94804.41;5011531;28;20487;-75
2021/05/15 02:53:13;;;;;;;2.28;1.38;;;;;;;11.87;74.70;94814.41;5009303;28;20034;-77
2021/05/15 02:55:39;;;;;;;0.70;0.68;;;;;;;11.84;74.43;94819.59;5009567;28;20038;-75
2021/05/15 02:58:04;;;;;;;1.33;0.90;;;;;;;11.84;74.50;94820.38;5009877;28;20041;-77
2021/05/15 03:00:30;;;;;;;0.85;0.60;;;;;;;11.62;74.28;94781.41;5009582;28;20492;-76
2021/05/15 03:02:57;;;;;;;1.40;0.80;;;;;;;11.84;74.53;94800.94;5009272;28;20026;-66
2021/05/15 03:05:24;;;;;;;0.75;0.75;;;;;;;11.89;74.72;94817.53;5011611;28;20030;-76
2021/05/15 03:07:50;;;;;;;1.45;0.77;;;;;;;11.85;73.97;94805.19;5009494;28;20434;-76
2021/05/15 03:10:16;;;;;;;0.70;0.70;;;;;;;11.90;74.21;94810.31;5009334;28;20041;-77
2021/05/15 03:12:42;;;;;;;0.65;0.65;;;;;;;11.88;74.14;94804.53;5009037;28;20088;-76
2021/05/15 03:15:11;;;;;;;2.55;0.73;;;;;;;11.88;73.86;94801.88;5009492;28;20029;-77
2021/05/15 03:17:38;;;;;;;1.95;0.88;;;;;;;11.93;73.62;94807.81;5011268;28;20018;-75
2021/05/15 03:20:06;;;;;;;1.25;0.80;;;;;;;11.99;74.08;94812.97;5009152;28;20045;-76
2021/05/15 03:22:31;;;;;;;1.27;0.60;;;;;;;11.99;73.75;94813.75;5009085;28;20092;-77
2021/05/15 03:24:56;;;;;;;3.53;0.93;;;;;;;12.03;73.40;94811.19;5009280;28;20054;-74
2021/05/15 03:27:22;;;;;;;1.30;0.80;;;;;;;12.01;73.17;94810.75;5009402;28;20041;-75
2021/05/15 03:29:48;;;;;;;0.73;0.68;;;;;;;12.02;72.91;94810.41;5011469;28;20097;-77
2021/05/15 03:32:13;;;;;;;0.95;0.63;;;;;;;12.04;73.52;94805.56;5009333;28;20041;-76
2021/05/15 03:34:39;;;;;;;1.70;0.68;;;;;;;12.11;73.10;94826.38;5009147;28;20038;-75
2021/05/15 03:37:04;;;;;;;0.55;0.55;;;;;;;12.03;73.19;94800.53;5009161;28;20176;-75
2021/05/15 03:39:30;;;;;;;1.13;0.80;;;;;;;12.13;73.02;94808.97;5011189;28;20038;-76
2021/05/15 03:41:55;;;;;;;0.95;0.85;;;;;;;12.09;72.76;94802.72;5014698;28;20088;-76
2021/05/15 03:44:21;;;;;;;1.65;0.57;;;;;;;12.09;72.74;94800.06;5012502;28;20524;-75
2021/05/15 03:46:46;;;;;;;1.58;0.75;;;;;;;12.07;73.57;94796.91;5012801;28;20458;-77
2021/05/15 03:49:12;;;;;;;0.80;0.80;;;;;;;12.11;73.08;94802.41;5012840;28;20203;-77
2021/05/15 03:51:39;;;;;;;1.10;0.60;;;;;;;12.09;73.32;94800.06;5012916;28;20034;-77
2021/05/15 03:54:04;;;;;;;1.13;0.70;;;;;;;12.10;73.08;94814.94;5012585;28;20018;-77
2021/05/15 03:56:30;;;;;;;0.85;0.80;;;;;;;12.09;73.63;94807.28;5014648;28;20030;-76
2021/05/15 03:58:55;;;;;;;1.15;0.80;;;;;;;12.13;72.93;94811.66;5013030;28;20034;-76
2021/05/15 04:01:21;;;;;;;1.48;0.70;;;;;;;12.12;73.24;94814.63;5012824;28;20843;-76
2021/05/15 04:03:47;;;;;;;2.67;0.57;;;;;;;12.14;72.61;94812.44;5012300;28;20112;-77
2021/05/15 04:06:13;;;;;;;2.13;0.90;;;;;;;12.16;73.03;94804.88;5012693;28;20036;-76
2021/05/15 04:08:38;;;;;;;1.20;0.80;;;;;;;12.25;72.69;94815.50;5014421;28;20026;-75
2021/05/15 04:11:03;;;;;;;0.70;0.60;;;;;;;12.31;72.74;94815.00;5012625;28;20507;-77
2021/05/15 04:16:47;;;;;;;1.60;0.82;;;;;;;12.39;72.34;94814.19;5012258;28;20529;-77
2021/05/15 04:18:58;;;;;;;1.40;0.52;;;;;;;12.45;72.12;94809.44;5012221;28;20526;-77
2021/05/15 04:21:23;;;;;;;2.15;0.73;;;;;;;12.44;71.85;94807.88;5012301;28;20037;-76
2021/05/15 04:23:49;;;;;;;1.17;0.70;;;;;;;12.48;71.31;94816.78;5013573;28;20041;-76
2021/05/15 04:26:15;;;;;;;1.20;0.63;;;;;;;12.50;70.94;94811.91;5012292;28;20030;-77
2021/05/15 04:28:41;;;;;;;0.50;0.50;;;;;;;12.47;70.89;94810.66;5012157;28;20462;-77
2021/05/15 04:31:06;;;;;;;1.10;0.40;;;;;;;12.53;71.36;94808.59;5011634;28;20041;-75
2021/05/15 04:33:32;;;;;;;1.75;0.90;;;;;;;12.56;71.15;94807.16;5011616;28;20065;-77
2021/05/15 04:35:57;;;;;;;1.48;0.60;;;;;;;12.68;70.92;94823.25;5011901;28;20353;-76
2021/05/15 04:38:23;;;;;;;0.63;0.40;;;;;;;12.71;70.39;94819.94;5013690;28;20077;-77
2021/05/15 04:40:49;;;;;;;0.82;0.57;;;;;;;12.76;70.58;94817.06;5011696;28;20030;-77
2021/05/15 04:43:15;;;;;;;1.30;0.60;;;;;;;12.78;70.12;94812.19;5011386;28;20499;-77
2021/05/15 04:45:41;;;;;;;2.75;0.50;;;;;;;12.93;69.96;94826.84;5011789;28;20041;-77
2021/05/15 04:48:07;;;;;;;0.88;0.40;;;;;;;12.96;69.29;94829.66;5011970;28;20029;-77
2021/05/15 04:50:33;;;;;;;1.20;0.57;;;;;;;13.02;69.61;94827.56;5013026;28;20390;-77
2021/05/15 04:52:59;;;;;;;1.05;0.60;;;;;;;13.13;69.43;94830.59;5011352;28;20120;-77
2021/05/15 04:55:24;;;;;;;3.33;0.68;;;;;;;13.20;69.34;94836.19;5011750;28;20061;-76
2021/05/15 04:57:49;;;;;;;1.85;0.63;;;;;;;13.23;68.93;94817.66;5011501;28;20454;-76
2021/05/15 05:00:15;;;;;;;0.70;0.45;;;;;;;13.25;68.90;94823.44;5011689;28;21110;-78
2021/05/15 05:02:41;;;;;;;0.80;0.40;;;;;;;13.19;68.71;94815.94;5013094;28;20083;-77
2021/05/15 05:05:08;;;;;;;0.80;0.50;;;;;;;13.24;68.52;94810.44;5011555;28;20072;-75
2021/05/15 05:07:33;;;;;;;1.25;0.70;;;;;;;13.21;68.59;94808.41;5011588;28;20110;-77
2021/05/15 05:09:58;;;;;;;1.27;0.70;;;;;;;13.35;68.50;94821.47;5011276;28;20069;-75
2021/05/15 05:12:24;;;;;;;2.30;0.50;;;;;;;13.52;68.82;94821.34;5010766;28;20064;-75
2021/05/15 05:14:49;;;;;;;0.70;0.70;;;;;;;13.68;67.88;94816.13;5013221;28;20507;-77
2021/05/15 05:17:15;;;;;;;0.70;0.50;;;;;;;13.76;67.68;94815.25;5011271;28;20041;-76
2021/05/15 05:19:40;;;;;;;0.52;0.52;;;;;;;13.77;66.93;94814.16;5011095;28;20443;-75
2021/05/15 05:22:05;;;;;;;0.95;0.60;;;;;;;13.84;66.71;94808.25;5011132;28;20125;-76
2021/05/15 05:24:31;;;;;;;0.50;0.50;;;;;;;13.99;66.30;94816.41;5010505;28;20558;-75
2021/05/15 05:26:58;;;;;;;0.77;0.57;;;;;;;13.99;66.03;94810.28;5012434;28;20026;-77
2021/05/15 05:29:23;;;;;;;0.90;0.70;;;;;;;14.02;66.04;94814.94;5010788;28;20030;-76
2021/05/15 05:31:50;;;;;;;1.25;0.70;;;;;;;14.08;65.62;94813.63;5010915;28;20455;-76
2021/05/15 05:34:16;;;;;;;0.82;0.50;;;;;;;14.09;65.40;94809.84;5010470;28;20552;-75
2021/05/15 05:36:41;;;;;;;0.60;0.40;;;;;;;14.11;65.54;94809.50;5010874;28;20311;-75
2021/05/15 05:39:13;;;;;;;1.15;0.70;;;;;;;14.05;65.29;94809.72;5009359;28;20029;-75
2021/05/15 05:41:38;;;;;;;1.40;0.75;;;;;;;14.07;65.15;94819.28;5012469;28;20025;-75
2021/05/15 05:44:05;;;;;;;0.85;0.55;;;;;;;14.13;65.10;94809.97;5010168;28;20465;-77
2021/05/15 05:46:31;;;;;;;1.35;0.57;;;;;;;14.29;65.29;94816.19;5010647;28;20037;-76
2021/05/15 05:48:56;;;;;;;0.90;0.60;;;;;;;14.45;64.84;94810.94;5010662;28;20038;-75
2021/05/15 05:51:22;;;;;;;1.48;0.60;;;;;;;14.66;64.23;94808.16;5010551;28;20030;-76
2021/05/15 05:53:49;;;;;;;0.60;0.50;;;;;;;14.88;63.45;94806.88;5012269;28;20030;-76
2021/05/15 05:56:14;;;;;;;2.30;0.77;;;;;;;15.11;62.51;94801.81;5010742;28;20037;-77
2021/05/15 05:58:40;;;;;;;1.15;0.60;;;;;;;15.41;62.10;94804.94;5010660;28;20034;-76
2021/05/15 06:01:06;;;;;;;3.20;0.40;;;;;;;15.63;60.95;94806.25;5009586;28;20049;-76
2021/05/15 06:03:31;;;;;;;1.65;0.30;;;;;;;15.84;60.26;94802.25;5009919;28;20041;-77
2021/05/15 06:05:56;;;;;;;1.08;0.40;;;;;;;16.02;59.17;94808.06;5009904;28;20021;-78
2021/05/15 06:08:22;;;;;;;1.15;0.60;;;;;;;16.21;58.63;94810.03;5012039;28;20057;-77
2021/05/15 06:10:47;;;;;;;1.27;0.30;;;;;;;16.25;56.77;94807.44;5009789;28;20037;-78
2021/05/15 06:13:14;;;;;;;0.63;0.40;;;;;;;16.29;57.01;94802.94;5009465;28;20041;-77
2021/05/15 06:15:39;;;;;;;0.63;0.30;;;;;;;16.35;57.53;94805.00;5010157;28;20538;-77
2021/05/15 06:18:05;;;;;;;2.60;0.50;;;;;;;16.66;56.35;94810.66;5010251;28;20034;-76
2021/05/15 06:20:31;;;;;;;0.68;0.40;;;;;;;16.92;55.38;94802.03;5012073;28;20501;-76
2021/05/15 06:22:56;;;;;;;1.58;0.47;;;;;;;17.18;53.98;94798.72;5008341;28;20403;-76
2021/05/15 06:25:22;;;;;;;2.47;0.43;;;;;;;17.37;53.74;94806.78;5009954;28;20046;-76
2021/05/15 06:27:47;;;;;;;0.52;0.40;;;;;;;17.50;52.85;94807.41;5009898;28;20562;-77
2021/05/15 06:30:14;;;;;;;0.90;0.50;;;;;;;17.53;52.79;94799.41;5009703;28;20109;-76
2021/05/15 06:32:39;;;;;;;1.10;0.40;;;;;;;17.54;51.68;94792.91;5011289;28;20104;-75
2021/05/15 06:35:05;;;;;;;1.10;0.70;;;;;;;16.88;51.70;94799.28;5009713;28;20119;-74
2021/05/15 06:37:31;;;;;;;0.73;0.47;;;;;;;17.05;52.91;94798.88;5009520;28;20092;-75
2021/05/15 06:39:56;;;;;;;1.45;0.60;;;;;;;17.20;53.25;94794.56;5008349;28;20041;-75
2021/05/15 06:42:21;;;;;;;2.25;0.50;;;;;;;17.21;50.79;94800.72;5009222;28;20127;-74
2021/05/15 06:44:48;;;;;;;1.90;0.38;;;;;;;17.52;50.16;94792.50;5011099;28;20072;-75
2021/05/15 06:47:14;;;;;;;2.58;0.30;;;;;;;17.62;49.98;94783.06;5009589;28;20454;-76
2021/05/15 06:49:39;;;;;;;2.65;0.40;;;;;;;17.82;49.34;94789.22;5009143;28;20034;-75
2021/05/15 06:52:05;;;;;;;0.85;0.50;;;;;;;18.09;49.48;94796.19;5009720;28;20049;-78
2021/05/15 06:54:31;;;;;;;1.75;0.50;;;;;;;18.38;48.42;94800.13;5009134;28;20042;-76
2021/05/15 06:56:56;;;;;;;2.03;0.50;;;;;;;18.51;47.85;94794.53;5009545;28;20076;-71
2021/05/15 06:59:21;;;;;;;0.77;0.40;;;;;;;18.56;46.53;94783.44;5011574;28;20097;-75
2021/05/15 07:01:47;;;;;;;1.58;0.50;;;;;;;18.65;44.85;94792.03;5009827;28;20034;-77
2021/05/15 07:04:13;;;;;;;0.50;0.50;;;;;;;18.74;46.10;94789.91;5009164;28;20488;-77
2021/05/15 07:06:38;;;;;;;0.98;0.60;;;;;;;19.13;46.82;94789.59;5009823;28;20041;-77
2021/05/15 07:09:04;;;;;;;3.17;1.42;;;;;;;19.29;45.57;94790.19;5009553;28;20441;-77
2021/05/15 07:11:30;;;;;;;2.17;0.50;;;;;;;19.45;45.26;94781.91;5011422;28;20041;-76
2021/05/15 07:13:55;;;;;;;0.68;0.40;;;;;;;19.14;43.55;94781.19;5012283;28;20534;-77
2021/05/15 07:16:20;;;;;;;1.15;0.40;;;;;;;19.13;44.39;94776.91;5013567;28;20049;-76
2021/05/15 07:18:46;;;;;;;1.33;0.47;;;;;;;18.88;43.77;94775.81;5013416;28;20511;-75
2021/05/15 07:21:11;;;;;;;2.20;0.40;;;;;;;18.61;44.99;94778.50;5013220;28;20109;-74
2021/05/15 07:23:37;;;;;;;1.45;0.40;;;;;;;19.00;44.65;94767.53;5014595;28;20026;-74
2021/05/15 07:26:04;;;;;;;1.08;0.32;;;;;;;19.53;43.96;94775.44;5013082;28;20046;-75
2021/05/15 07:28:30;;;;;;;0.50;0.47;;;;;;;18.74;43.82;94775.66;5011969;28;20042;-75
2021/05/15 07:30:57;;;;;;;0.98;0.50;;;;;;;19.34;43.90;94767.50;5012788;28;20049;-74
2021/05/15 07:33:22;;;;;;;0.68;0.40;;;;;;;19.80;43.13;94762.63;5012886;28;20034;-73
2021/05/15 07:35:47;;;;;;;2.40;0.30;;;;;;;20.14;42.41;94757.13;5014742;28;20534;-72
2021/05/15 07:38:14;;;;;;;1.25;0.50;;;;;;;20.11;41.56;94749.75;5012729;28;20491;-73
2021/05/15 07:40:39;;;;;;;0.32;0.32;;;;;;;20.05;40.49;94754.72;5013125;28;20038;-71
2021/05/15 07:43:05;;;;;;;2.72;0.40;;;;;;;20.07;40.58;94752.44;5012454;28;20530;-71
2021/05/15 07:45:32;;;;;;;1.88;0.50;;;;;;;19.97;39.88;94763.94;5012812;28;20038;-70
2021/05/15 07:48:00;;;;;;;1.58;0.38;;;;;;;20.02;39.63;94742.00;5013526;28;20427;-76
2021/05/15 07:50:25;;;;;;;0.73;0.35;;;;;;;20.37;39.47;94743.38;5014818;28;20022;-77
2021/05/15 07:52:50;;;;;;;0.93;0.50;;;;;;;20.50;39.07;94752.78;5012530;28;20034;-75
2021/05/15 07:55:16;;;;;;;1.02;0.40;;;;;;;18.85;40.44;94755.00;5012391;28;20034;-76
2021/05/15 07:57:41;;;;;;;0.57;0.32;;;;;;;17.76;42.40;94752.97;5012279;28;20042;-77
2021/05/15 08:00:07;;;;;;;1.95;0.50;;;;;;;18.42;42.09;94739.00;5012908;28;20112;-75
2021/05/15 08:02:34;;;;;;;1.33;0.30;;;;;;;18.87;39.26;94747.31;5013755;28;20032;-75
2021/05/15 08:05:00;;;;;;;0.85;0.47;;;;;;;15.42;44.28;94747.50;5011848;28;20084;-70
2021/05/15 08:07:25;;;;;;;0.70;0.47;;;;;;;15.51;44.67;94746.22;5010225;28;20030;-73
2021/05/15 08:09:51;;;;;;;0.95;0.40;;;;;;;16.42;42.89;94728.44;5011921;28;20491;-78
2021/05/15 08:12:16;;;;;;;0.80;0.43;;;;;;;17.92;40.69;94727.50;5012067;28;20042;-75
2021/05/15 08:14:42;;;;;;;1.75;0.32;;;;;;;17.82;39.29;94738.09;5014160;28;20033;-70
2021/05/15 08:17:08;;;;;;;1.25;0.60;;;;;;;17.98;39.38;94735.28;5013166;28;20045;-77
2021/05/15 08:19:33;;;;;;;1.10;0.35;;;;;;;18.77;37.95;94731.78;5012304;28;20073;-79
2021/05/15 08:21:59;;;;;;;0.60;0.30;;;;;;;17.36;39.62;94729.97;5011677;28;20117;-75
2021/05/15 08:24:24;;;;;;;0.90;0.40;;;;;;;17.55;39.41;94719.16;5010613;28;20066;-77
2021/05/15 08:26:50;;;;;;;1.00;0.30;;;;;;;18.67;37.40;94723.19;5013862;28;20093;-71
2021/05/15 08:29:18;;;;;;;0.50;0.40;;;;;;;17.87;37.65;94714.34;5011691;28;20128;-75
2021/05/15 08:31:43;;;;;;;2.05;0.40;;;;;;;17.40;40.47;94730.78;5010815;28;20096;-76
2021/05/15 08:34:08;;;;;;;0.85;0.38;;;;;;;16.97;39.30;94707.72;5011676;28;20034;-75
2021/05/15 08:36:34;;;;;;;1.40;0.25;;;;;;;18.57;38.39;94723.03;5011420;28;20037;-70
2021/05/15 08:38:59;;;;;;;1.42;0.50;;;;;;;17.18;38.43;94713.50;5010014;28;20352;-73
2021/05/15 08:41:25;;;;;;;1.42;0.40;;;;;;;16.98;40.54;94709.28;5013176;28;20400;-78
2021/05/15 08:43:53;;;;;;;0.45;0.40;;;;;;;17.37;40.27;94707.31;5010945;28;20436;-75
2021/05/15 08:46:20;;;;;;;0.85;0.35;;;;;;;16.78;40.87;94717.34;5010160;28;20038;-76
2021/05/15 08:48:47;;;;;;;0.63;0.30;;;;;;;18.14;37.62;94703.59;5011256;28;20041;-75
2021/05/15 08:51:12;;;;;;;1.30;0.40;;;;;;;17.40;38.47;94695.84;5010736;28;20030;-75
2021/05/15 08:53:39;;;;;;;0.68;0.30;;;;;;;17.53;38.64;94705.28;5012866;28;20084;-75
2021/05/15 08:56:08;;;;;;;0.50;0.20;;;;;;;18.92;37.45;94695.78;5011328;28;20495;-76
2021/05/15 08:58:35;;;;;;;0.98;0.45;;;;;;;18.87;35.93;94701.50;5011150;28;20096;-75
2021/05/15 09:01:01;;;;;;;0.40;0.30;;;;;;;19.57;35.70;94706.09;5011488;28;20038;-77
2021/05/15 09:03:26;;;;;;;0.55;0.30;;;;;;;20.35;35.35;94691.69;5009357;28;20041;-75
2021/05/15 09:05:52;;;;;;;1.30;0.50;;;;;;;19.46;34.10;94687.13;5012681;28;20056;-74
2021/05/15 09:08:18;;;;;;;0.82;0.30;;;;;;;19.90;33.62;94702.53;5010552;28;20038;-74
2021/05/15 09:10:47;;;;;;;0.93;0.30;;;;;;;19.28;35.50;94702.34;5009280;28;20053;-75
2021/05/15 09:13:20;;;;;;;0.73;0.30;;;;;;;20.18;35.34;94693.91;5010259;28;20125;-74
2021/05/15 09:15:48;;;;;;;0.80;0.47;;;;;;;20.82;34.40;94687.31;5009183;28;20038;-74
2021/05/15 09:18:16;;;;;;;2.55;0.55;;;;;;;21.15;32.54;94681.63;5009433;28;20029;-75
2021/05/15 09:20:42;;;;;;;1.00;0.60;;;;;;;20.14;32.99;94695.03;5011628;28;20062;-80
2021/05/15 09:23:21;;;;;;;1.70;0.45;;;;;;;20.91;33.03;94695.84;5010648;28;20069;-74
2021/05/15 09:26:04;;;;;;;0.50;0.32;;;;;;;21.38;32.85;94681.31;5011058;28;20032;-76
2021/05/15 09:28:56;;;;;;;1.13;0.40;;;;;;;21.24;33.21;94682.06;5010509;28;20041;-71
2021/05/15 09:31:32;;;;;;;1.42;0.20;;;;;;;21.70;31.56;94680.56;5009001;28;20104;-73
2021/05/15 09:34:03;;;;;;;1.25;0.28;;;;;;;22.19;31.29;94673.63;5008550;28;20460;-73
2021/05/15 09:36:35;;;;;;;1.60;0.35;;;;;;;22.69;30.97;94681.66;5009060;28;20111;-75
2021/05/15 09:39:17;;;;;;;8.35;5.90;;;;;;;22.95;29.96;94673.06;5010359;28;20498;-70
2021/05/15 09:41:45;;;;;;;1.10;0.30;;;;;;;19.13;32.96;94677.16;5010738;28;20394;-73
2021/05/15 09:44:13;;;;;;;1.13;0.30;;;;;;;19.03;34.76;94655.47;5009543;28;20048;-72
2021/05/15 09:46:41;;;;;;;0.75;0.20;;;;;;;19.78;33.54;94656.97;5010366;28;20065;-71
2021/05/15 09:49:08;;;;;;;1.20;0.38;;;;;;;20.90;32.72;94634.81;5009489;28;20128;-78
2021/05/15 09:51:34;;;;;;;1.85;0.52;;;;;;;21.41;30.60;94666.25;5008616;28;20091;-78
2021/05/15 09:54:24;;;;;;;0.40;0.30;;;;;;;21.90;31.03;94656.59;5009849;28;20033;-74
2021/05/15 09:56:55;;;;;;;0.40;0.30;;;;;;;22.59;30.53;94664.25;5012049;28;20107;-73
2021/05/15 09:59:35;;;;;;;1.05;0.45;;;;;;;23.12;29.95;94659.78;5010090;28;20376;-71
2021/05/15 10:02:09;;;;;;;1.15;0.60;;;;;;;23.75;29.23;94652.41;5009869;28;20096;-73
2021/05/15 10:04:34;;;;;;;1.52;0.50;;;;;;;24.15;28.17;94645.47;5008410;28;20089;-75
2021/05/15 10:07:01;;;;;;;0.90;0.50;;;;;;;24.24;27.77;94647.72;5008942;28;20450;-70
2021/05/15 10:09:36;;;;;;;0.82;0.50;;;;;;;24.15;28.19;94640.03;5008176;28;20038;-73
2021/05/15 10:12:04;;;;;;;1.38;0.30;;;;;;;24.20;28.39;94631.44;5009635;28;20508;-75
2021/05/15 10:14:31;;;;;;;0.52;0.52;;;;;;;23.62;27.37;94624.97;5011014;28;20025;-75
2021/05/15 10:16:57;;;;;;;1.23;0.47;;;;;;;23.69;28.15;94633.06;5009669;28;20104;-74
2021/05/15 10:19:23;;;;;;;1.75;0.57;;;;;;;23.40;26.88;94620.88;5009384;28;20507;-74
2021/05/15 10:21:49;;;;;;;0.80;0.30;;;;;;;23.46;27.69;94616.56;5009232;28;20108;-73
2021/05/15 10:24:27;;;;;;;1.92;0.40;;;;;;;23.29;27.24;94612.81;5007342;28;20497;-74
2021/05/15 10:27:04;;;;;;;1.45;0.70;;;;;;;23.76;27.25;94621.41;5011227;28;20022;-75
2021/05/15 10:29:38;;;;;;;2.28;0.60;;;;;;;23.95;26.70;94622.78;5009878;28;20042;-74
2021/05/15 10:32:07;;;;;;;3.45;1.65;;;;;;;20.95;29.32;94620.94;5007805;28;20037;-74
2021/05/15 10:34:34;;;;;;;0.52;0.43;;;;;;;20.97;29.16;94603.16;5008868;28;20038;-74
2021/05/15 10:37:03;;;;;;;0.30;0.30;;;;;;;20.67;30.06;94616.22;5009164;28;20089;-74
2021/05/15 10:39:30;;;;;;;0.20;0.20;;;;;;;22.14;29.02;94595.47;5007802;28;20046;-75
2021/05/15 10:41:56;;;;;;;0.20;0.20;;;;;;;23.05;27.48;94592.81;5011287;28;20037;-73
2021/05/15 10:44:22;;;;;;;0.30;0.28;;;;;;;23.37;26.96;94591.81;5008086;28;20200;-73
2021/05/15 10:46:49;;;;;;;1.00;0.40;;;;;;;23.59;27.27;94566.03;5009310;28;20563;-74
2021/05/15 10:49:23;;;;;;;0.95;0.43;;;;;;;23.86;26.79;94566.22;5008963;28;20048;-74
2021/05/15 10:52:06;;;;;;;0.52;0.20;;;;;;;23.89;25.80;94570.06;5007881;28;20156;-74
2021/05/15 10:54:40;;;;;;;0.30;0.20;;;;;;;24.15;25.83;94571.34;5007533;28;20499;-75
2021/05/15 10:57:08;;;;;;;0.52;0.50;;;;;;;24.04;26.34;94558.66;5009056;28;20054;-73
2021/05/15 10:59:35;;;;;;;1.65;0.32;;;;;;;24.25;26.40;94565.78;5011492;28;20018;-74
2021/05/15 11:02:05;;;;;;;2.05;0.40;;;;;;;24.43;26.17;94568.34;5008037;28;20395;-71
2021/05/15 11:04:33;;;;;;;1.63;0.50;;;;;;;24.47;25.49;94557.44;5008308;28;20559;-70
2021/05/15 11:07:00;;;;;;;0.55;0.40;;;;;;;24.73;25.79;94561.38;5008935;28;20045;-71
2021/05/15 11:09:26;;;;;;;0.65;0.40;;;;;;;25.09;24.88;94535.25;5007350;28;20042;-68
2021/05/15 11:11:53;;;;;;;0.65;0.22;;;;;;;25.32;23.55;94553.53;5009186;28;20030;-69
2021/05/15 11:14:35;;;;;;;0.50;0.17;;;;;;;25.30;23.39;94541.53;5008187;28;20069;-72
2021/05/15 11:17:16;;;;;;;1.40;0.32;;;;;;;25.36;23.63;94539.88;5008809;28;20076;-72
2021/05/15 11:19:49;;;;;;;1.00;0.32;;;;;;;25.51;23.51;94535.75;5008859;28;20118;-72
2021/05/15 11:22:15;;;;;;;3.05;0.38;;;;;;;25.57;23.71;94525.13;5008015;28;20041;-70
2021/05/15 11:24:50;;;;;;;1.02;0.30;;;;;;;25.25;24.80;94531.13;5008605;28;20515;-68
2021/05/15 11:27:17;;;;;;;1.35;0.45;;;;;;;24.12;25.90;94526.75;5008630;28;20061;-66
2021/05/15 11:29:43;;;;;;;0.80;0.30;;;;;;;24.29;25.09;94535.84;5010621;28;20042;-70
2021/05/15 11:32:09;;;;;;;0.50;0.22;;;;;;;24.00;25.72;94532.69;5007226;28;20038;-73
2021/05/15 11:34:35;;;;;;;0.40;0.40;;;;;;;23.63;25.89;94526.06;5009537;28;20052;-76